createdAt,value
2018-06-08T00:01:44.173Z,48.97
2018-06-08T00:04:14.228Z,39.97
2018-06-08T00:06:44.792Z,42.80
2018-06-08T00:09:15.996Z,36.63
2018-06-08T00:11:46.478Z,38.70
2018-06-08T00:14:16.233Z,34.53
2018-06-08T00:16:46.352Z,36.80
2018-06-08T00:19:16.153Z,36.47
2018-06-08T00:21:45.931Z,45.93
2018-06-08T00:24:16.433Z,39.63
2018-06-08T00:26:46.224Z,41.33
2018-06-08T00:29:16.078Z,36.50
2018-06-08T00:31:46.098Z,82.27
2018-06-08T00:34:15.841Z,57.07
2018-06-08T00:36:45.652Z,48.27
2018-06-08T00:39:15.600Z,37.70
2018-06-08T00:41:45.524Z,40.03
2018-06-08T00:44:16.650Z,39.57
2018-06-08T00:46:46.564Z,36.90
2018-06-08T00:49:17.347Z,37.23
2018-06-08T00:51:48.322Z,38.57
2018-06-08T00:54:18.965Z,39.87
2018-06-08T00:56:59.883Z,39.53
2018-06-08T00:59:29.661Z,32.07
2018-06-08T01:01:59.448Z,42.33
2018-06-08T01:04:29.802Z,36.40
2018-06-08T01:06:59.887Z,44.83
2018-06-08T01:09:30.345Z,31.90
2018-06-08T01:12:00.424Z,31.30
2018-06-08T01:14:32.381Z,36.70
2018-06-08T01:17:02.741Z,41.67
2018-06-08T01:19:35.029Z,37.27
2018-06-08T01:22:04.808Z,38.27
2018-06-08T01:24:35.219Z,41.63
2018-06-08T01:27:05.044Z,41.03
2018-06-08T01:29:34.869Z,34.23
2018-06-08T01:32:05.978Z,33.27
2018-06-08T01:34:36.134Z,51.13
2018-06-08T01:37:05.971Z,38.07
2018-06-08T01:39:35.806Z,35.47
2018-06-08T01:42:05.638Z,36.37
2018-06-08T01:44:35.609Z,42.60
2018-06-08T01:47:05.545Z,35.33
2018-06-08T01:49:36.100Z,38.80
2018-06-08T01:52:06.726Z,37.23
2018-06-08T01:54:37.329Z,41.20
2018-06-08T01:57:07.155Z,37.50
2018-06-08T01:59:36.999Z,38.47
2018-06-08T02:02:06.774Z,33.60
2018-06-08T02:04:37.278Z,44.80
2018-06-08T02:07:07.356Z,42.70
2018-06-08T02:09:37.548Z,45.47
2018-06-08T02:12:07.267Z,44.67
2018-06-08T02:14:37.695Z,40.83
2018-06-08T02:17:08.395Z,42.70
2018-06-08T02:19:38.264Z,33.57
2018-06-08T02:22:08.667Z,37.87
2018-06-08T02:24:39.219Z,32.87
2018-06-08T02:27:09.232Z,35.43
2018-06-08T02:29:39.136Z,36.40
2018-06-08T02:32:08.995Z,35.33
2018-06-08T02:34:39.572Z,37.57
2018-06-08T02:37:09.316Z,36.57
2018-06-08T02:39:39.116Z,38.03
2018-06-08T02:42:10.158Z,32.03
2018-06-08T02:44:40.115Z,33.73
2018-06-08T02:47:09.975Z,32.47
2018-06-08T02:49:40.409Z,37.83
2018-06-08T02:52:10.322Z,37.87
2018-06-08T02:54:40.134Z,29.23
2018-06-08T02:57:10.051Z,32.53
2018-06-08T02:59:40.656Z,28.20
2018-06-08T03:02:10.529Z,29.37
2018-06-08T03:04:41.166Z,33.87
2018-06-08T03:07:11.210Z,33.70
2018-06-08T03:09:41.414Z,34.63
2018-06-08T03:12:11.290Z,42.20
2018-06-08T03:14:41.270Z,40.47
2018-06-08T03:17:11.647Z,37.87
2018-06-08T03:19:41.398Z,38.10
2018-06-08T03:22:11.157Z,53.37
2018-06-08T03:24:40.957Z,64.50
2018-06-08T03:27:11.517Z,41.03
2018-06-08T03:29:42.237Z,39.70
2018-06-08T03:32:12.708Z,35.87
2018-06-08T03:34:43.107Z,38.90
2018-06-08T03:37:13.053Z,45.73
2018-06-08T03:39:43.010Z,39.43
2018-06-08T03:42:12.842Z,42.47
2018-06-08T03:44:43.386Z,41.17
2018-06-08T03:47:13.282Z,53.50
2018-06-08T03:49:43.095Z,58.20
2018-06-08T03:52:12.982Z,58.57
2018-06-08T03:54:42.940Z,61.50
2018-06-08T03:57:13.536Z,51.20
2018-06-08T03:59:44.098Z,50.93
2018-06-08T04:02:15.070Z,55.50
2018-06-08T04:04:44.864Z,54.33
2018-06-08T04:07:14.939Z,51.47
2018-06-08T04:09:45.340Z,54.47
2018-06-08T04:12:15.280Z,82.10
2018-06-08T04:14:46.001Z,80.13
2018-06-08T04:17:16.405Z,113.60
2018-06-08T04:19:46.305Z,109.30
2018-06-08T04:22:16.157Z,76.43
2018-06-08T04:24:45.937Z,101.30
2018-06-08T04:27:15.877Z,92.53
2018-06-08T04:29:45.657Z,89.00
2018-06-08T04:32:15.605Z,88.73
2018-06-08T04:34:45.414Z,88.67
2018-06-08T04:37:15.348Z,88.00
2018-06-08T04:39:45.875Z,84.93
2018-06-08T04:42:15.617Z,81.37
2018-06-08T04:44:46.141Z,78.47
2018-06-08T04:47:15.971Z,73.87
2018-06-08T04:49:46.952Z,77.07
2018-06-08T04:52:16.736Z,82.17
2018-06-08T04:54:46.482Z,71.53
2018-06-08T04:57:16.283Z,61.53
2018-06-08T04:59:46.108Z,62.87
2018-06-08T05:02:15.996Z,52.03
2018-06-08T05:04:46.539Z,50.77
2018-06-08T05:07:16.734Z,51.40
2018-06-08T05:09:46.607Z,55.47
2018-06-08T05:12:16.667Z,49.83
2018-06-08T05:14:46.608Z,54.47
2018-06-08T05:17:16.465Z,61.77
2018-06-08T05:19:47.240Z,62.47
2018-06-08T05:22:17.130Z,57.37
2018-06-08T05:24:46.959Z,46.10
2018-06-08T05:27:17.042Z,51.53
2018-06-08T05:29:46.922Z,42.13
2018-06-08T05:32:17.230Z,45.27
2018-06-08T05:36:16.864Z,47.80
2018-06-08T05:38:46.857Z,47.50
2018-06-08T05:41:17.486Z,40.73
2018-06-08T05:43:47.239Z,41.97
2018-06-08T05:46:17.279Z,40.47
2018-06-08T05:48:47.870Z,43.77
2018-06-08T05:51:18.071Z,41.67
2018-06-08T05:53:47.904Z,41.67
2018-06-08T05:56:18.116Z,41.23
2018-06-08T05:58:47.836Z,40.37
2018-06-08T06:01:18.068Z,39.03
2018-06-08T06:03:47.921Z,37.17
2018-06-08T06:06:17.809Z,41.33
2018-06-08T06:08:47.600Z,40.20
2018-06-08T06:11:18.003Z,45.13
2018-06-08T06:13:48.644Z,42.90
2018-06-08T06:16:18.581Z,42.93
2018-06-08T06:18:48.427Z,39.83
2018-06-08T06:21:18.710Z,42.13
2018-06-08T06:23:49.535Z,42.63
2018-06-08T06:26:19.824Z,39.97
2018-06-08T06:28:49.744Z,40.47
2018-06-08T06:31:19.724Z,41.50
2018-06-08T06:33:50.204Z,43.53
2018-06-08T06:36:20.876Z,42.10
2018-06-08T06:38:50.883Z,39.13
2018-06-08T06:41:21.825Z,41.30
2018-06-08T06:43:52.390Z,44.80
2018-06-08T06:46:22.103Z,43.70
2018-06-08T06:48:52.637Z,41.67
2018-06-08T06:51:23.759Z,40.93
2018-06-08T06:53:54.385Z,39.43
2018-06-08T06:56:24.510Z,42.60
2018-06-08T06:58:54.937Z,40.73
2018-06-08T07:01:24.934Z,39.73
2018-06-08T07:03:54.655Z,42.60
2018-06-08T07:06:24.454Z,42.67
2018-06-08T07:08:54.949Z,40.07
2018-06-08T07:11:24.867Z,41.37
2018-06-08T07:13:54.728Z,40.77
2018-06-08T07:16:25.246Z,39.53
2018-06-08T07:18:55.062Z,36.30
2018-06-08T07:21:25.543Z,40.70
2018-06-08T07:23:56.623Z,40.57
2018-06-08T07:26:28.148Z,41.47
2018-06-08T07:28:59.002Z,39.93
2018-06-08T07:31:28.935Z,40.00
2018-06-08T07:34:00.002Z,37.60
2018-06-08T07:36:29.832Z,35.20
2018-06-08T07:38:59.859Z,39.40
2018-06-08T07:41:30.581Z,36.43
2018-06-08T07:44:01.409Z,40.47
2018-06-08T07:46:31.868Z,38.00
2018-06-08T07:49:02.316Z,37.53
2018-06-08T07:51:32.126Z,38.90
2018-06-08T07:54:02.565Z,36.10
2018-06-08T07:56:32.327Z,36.80
2018-06-08T07:59:02.105Z,34.77
2018-06-08T08:01:32.391Z,34.13
2018-06-08T08:04:02.223Z,31.37
2018-06-08T08:06:32.763Z,33.20
2018-06-08T08:09:03.429Z,34.70
2018-06-08T08:11:33.252Z,32.10
2018-06-08T08:14:03.092Z,34.30
2018-06-08T08:16:33.244Z,34.73
2018-06-08T08:19:04.756Z,32.90
2018-06-08T08:21:35.552Z,35.30
2018-06-08T08:24:06.289Z,38.10
2018-06-08T08:26:37.405Z,39.20
2018-06-08T08:29:07.929Z,39.97
2018-06-08T08:31:38.606Z,31.30
2018-06-08T08:34:08.924Z,29.47
2018-06-08T08:36:39.096Z,29.63
2018-06-08T08:39:09.654Z,32.07
2018-06-08T08:41:39.436Z,27.50
2018-06-08T08:44:09.316Z,27.93
2018-06-08T08:46:40.048Z,35.93
2018-06-08T08:49:09.830Z,32.67
2018-06-08T08:51:39.993Z,27.30
2018-06-08T08:54:10.126Z,28.80
2018-06-08T08:56:40.971Z,27.83
2018-06-08T08:59:11.362Z,28.57
2018-06-08T09:01:41.450Z,26.57
2018-06-08T09:04:11.426Z,26.67
2018-06-08T09:06:41.253Z,23.27
2018-06-08T09:09:11.360Z,27.27
2018-06-08T09:11:41.753Z,26.17
2018-06-08T09:14:11.494Z,21.70
2018-06-08T09:16:41.645Z,22.07
2018-06-08T09:19:11.551Z,21.70
2018-06-08T09:21:41.713Z,22.63
2018-06-08T09:24:12.578Z,23.47
2018-06-08T09:26:42.912Z,20.80
2018-06-08T09:29:13.493Z,20.67
2018-06-08T09:31:44.197Z,20.60
2018-06-08T09:34:14.055Z,19.53
2018-06-08T09:36:43.917Z,19.83
2018-06-08T09:39:14.779Z,20.57
2018-06-08T09:41:44.588Z,16.77
2018-06-08T09:44:15.375Z,18.53
2018-06-08T09:46:45.314Z,19.40
2018-06-08T09:49:15.086Z,17.67
2018-06-08T09:51:45.644Z,19.60
2018-06-08T09:54:15.640Z,17.37
2018-06-08T09:56:45.494Z,19.23
2018-06-08T09:59:16.253Z,16.67
2018-06-08T10:01:46.453Z,16.90
2018-06-08T10:04:16.199Z,16.23
2018-06-08T10:06:46.803Z,15.63
2018-06-08T10:09:16.647Z,21.87
2018-06-08T10:11:47.128Z,21.07
2018-06-08T10:14:16.907Z,22.07
2018-06-08T10:16:47.213Z,21.90
2018-06-08T10:19:16.994Z,21.77
2018-06-08T10:21:46.923Z,22.97
2018-06-08T10:24:17.320Z,21.60
2018-06-08T10:26:47.232Z,22.73
2018-06-08T10:29:17.466Z,21.87
2018-06-08T10:31:48.219Z,22.77
2018-06-08T10:34:18.022Z,25.23
2018-06-08T10:36:49.470Z,23.73
2018-06-08T10:39:19.648Z,23.37
2018-06-08T10:41:50.240Z,24.47
2018-06-08T10:44:20.528Z,24.67
2018-06-08T10:46:50.356Z,24.07
2018-06-08T10:49:20.243Z,26.47
2018-06-08T10:51:50.824Z,23.43
2018-06-08T10:54:21.693Z,25.40
2018-06-08T10:56:52.328Z,24.17
2018-06-08T10:59:23.207Z,23.13
2018-06-08T11:01:53.017Z,26.20
2018-06-08T11:04:22.858Z,24.70
2018-06-08T11:06:53.112Z,21.73
2018-06-08T11:09:23.265Z,23.27
2018-06-08T11:11:53.551Z,20.67
2018-06-08T11:14:23.565Z,21.77
2018-06-08T11:16:54.159Z,22.67
2018-06-08T11:19:24.065Z,19.80
2018-06-08T11:21:53.920Z,22.07
2018-06-08T11:24:24.477Z,22.97
2018-06-08T11:26:54.582Z,24.83
2018-06-08T11:29:24.354Z,22.10
2018-06-08T11:31:54.297Z,23.60
2018-06-08T11:34:25.504Z,23.20
2018-06-08T11:36:55.411Z,22.20
2018-06-08T11:39:25.564Z,22.63
2018-06-08T11:41:56.296Z,23.00
2018-06-08T11:44:26.299Z,21.43
2018-06-08T11:46:56.958Z,21.90
2018-06-08T11:49:27.011Z,22.20
2018-06-08T11:51:56.915Z,23.30
2018-06-08T11:54:26.884Z,20.45
2018-06-08T11:56:56.645Z,20.55
2018-06-08T11:59:26.755Z,21.83
2018-06-08T12:01:57.168Z,22.23
2018-06-08T12:04:27.115Z,22.67
2018-06-08T12:06:57.069Z,21.77
2018-06-08T12:09:27.464Z,21.33
2018-06-08T12:11:57.300Z,22.25
2018-06-08T12:14:27.116Z,20.62
2018-06-08T12:16:57.119Z,20.80
2018-06-08T12:19:26.930Z,21.12
2018-06-08T12:21:56.703Z,22.07
2018-06-08T12:24:27.306Z,21.45
2018-06-08T12:26:57.149Z,21.75
2018-06-08T12:29:28.043Z,20.72
2018-06-08T12:31:58.105Z,21.85
2018-06-08T12:34:27.988Z,24.05
2018-06-08T12:36:59.069Z,21.42
2018-06-08T12:39:30.516Z,20.70
2018-06-08T12:42:00.397Z,19.90
2018-06-08T12:44:30.296Z,22.40
2018-06-08T12:47:01.235Z,20.70
2018-06-08T12:49:31.292Z,20.80
2018-06-08T12:52:01.593Z,20.95
2018-06-08T12:54:31.517Z,19.82
2018-06-08T12:57:01.807Z,19.98
2018-06-08T12:59:32.461Z,19.40
2018-06-08T13:02:02.221Z,20.57
2018-06-08T13:04:33.077Z,21.75
2018-06-08T13:07:02.893Z,19.87
2018-06-08T13:09:33.067Z,19.95
2018-06-08T13:12:03.715Z,20.55
2018-06-08T13:14:34.339Z,20.12
2018-06-08T13:17:04.352Z,18.35
2018-06-08T13:19:34.321Z,18.27
2018-06-08T13:22:04.381Z,18.40
2018-06-08T13:24:34.298Z,17.17
2018-06-08T13:27:05.001Z,18.45
2018-06-08T13:29:35.239Z,19.73
2018-06-08T13:32:05.089Z,20.00
2018-06-08T13:34:35.524Z,21.85
2018-06-08T13:37:06.277Z,20.65
2018-06-08T13:39:36.704Z,21.15
2018-06-08T13:42:06.494Z,20.70
2018-06-08T13:44:36.620Z,21.33
2018-06-08T13:47:07.694Z,22.52
2018-06-08T13:49:37.467Z,20.72
2018-06-08T13:52:07.405Z,23.62
2018-06-08T13:54:37.941Z,19.57
2018-06-08T13:57:08.445Z,24.18
2018-06-08T13:59:39.191Z,23.42
2018-06-08T14:02:09.156Z,21.93
2018-06-08T14:04:39.014Z,19.95
2018-06-08T14:07:08.971Z,21.52
2018-06-08T14:09:38.996Z,18.32
2018-06-08T14:12:09.971Z,20.82
2018-06-08T14:14:40.754Z,20.82
2018-06-08T14:17:11.381Z,22.13
2018-06-08T14:19:42.468Z,17.62
2018-06-08T14:22:13.353Z,16.50
2018-06-08T14:24:43.569Z,17.15
2018-06-08T14:27:14.409Z,16.02
2018-06-08T14:29:45.071Z,15.58
2018-06-08T14:32:15.617Z,16.93
2018-06-08T14:34:45.786Z,18.00
2018-06-08T14:37:16.224Z,17.07
2018-06-08T14:39:46.370Z,18.40
2018-06-08T14:42:16.201Z,21.12
2018-06-08T14:44:46.788Z,18.52
2018-06-08T14:47:17.309Z,19.87
2018-06-08T14:49:48.009Z,16.95
2018-06-08T14:52:17.975Z,17.35
2018-06-08T14:54:47.839Z,16.52
2018-06-08T14:57:17.599Z,17.25
2018-06-08T14:59:47.979Z,16.85
2018-06-08T15:02:17.838Z,16.90
2018-06-08T15:04:47.653Z,15.63
2018-06-08T15:07:17.669Z,16.12
2018-06-08T15:09:47.505Z,17.80
2018-06-08T15:12:17.999Z,16.32
2018-06-08T15:14:47.795Z,17.10
2018-06-08T15:17:18.014Z,16.05
2018-06-08T15:19:47.858Z,15.70
2018-06-08T15:22:17.770Z,20.15
2018-06-08T15:24:48.653Z,15.35
2018-06-08T15:27:19.056Z,15.30
2018-06-08T15:29:49.812Z,34.60
2018-06-08T15:32:19.596Z,16.20
2018-06-08T15:34:50.030Z,15.15
2018-06-08T15:37:20.900Z,15.18
2018-06-08T15:39:52.091Z,20.62
2018-06-08T15:42:22.561Z,18.48
2018-06-08T15:44:52.991Z,13.90
2018-06-08T15:47:24.002Z,14.00
2018-06-08T15:49:55.443Z,17.15
2018-06-08T15:52:26.186Z,17.85
2018-06-08T15:54:56.737Z,14.47
2018-06-08T15:57:27.339Z,16.67
2018-06-08T15:59:57.648Z,14.28
2018-06-08T16:02:28.273Z,17.80
2018-06-08T16:04:58.708Z,15.37
2018-06-08T16:07:29.262Z,14.17
2018-06-08T16:09:59.825Z,15.17
2018-06-08T16:12:30.181Z,15.13
2018-06-08T16:15:00.809Z,14.40
2018-06-08T16:17:31.431Z,15.10
2018-06-08T16:20:01.264Z,15.40
2018-06-08T16:22:31.128Z,14.03
2018-06-08T16:25:01.363Z,14.17
2018-06-08T16:27:31.183Z,13.40
2018-06-08T16:30:01.081Z,13.97
2018-06-08T16:32:31.442Z,14.50
2018-06-08T16:35:01.244Z,16.97
2018-06-08T16:37:31.072Z,16.77
2018-06-08T16:40:00.904Z,14.87
2018-06-08T16:42:31.250Z,14.23
2018-06-08T16:45:01.258Z,15.03
2018-06-08T16:47:31.219Z,14.90
2018-06-08T16:50:01.055Z,15.80
2018-06-08T16:52:30.834Z,15.57
2018-06-08T16:55:01.674Z,14.63
2018-06-08T16:57:31.537Z,17.67
2018-06-08T17:00:03.132Z,14.60
2018-06-08T17:02:32.922Z,15.17
2018-06-08T17:05:03.590Z,16.23
2018-06-08T17:07:33.477Z,15.83
2018-06-08T17:10:03.519Z,14.80
2018-06-08T17:12:33.373Z,15.10
2018-06-08T17:15:04.189Z,19.07
2018-06-08T17:17:33.938Z,13.97
2018-06-08T17:20:03.829Z,17.83
2018-06-08T17:22:33.611Z,19.07
2018-06-08T17:25:03.883Z,16.27
2018-06-08T17:27:34.678Z,19.90
2018-06-08T17:30:05.798Z,17.83
2018-06-08T17:32:35.692Z,17.97
2018-06-08T17:35:06.038Z,15.27
2018-06-08T17:37:36.623Z,18.70
2018-06-08T17:40:07.012Z,14.47
2018-06-08T17:42:37.739Z,18.10
2018-06-08T17:45:11.220Z,18.10
2018-06-08T17:47:41.229Z,14.53
2018-06-08T17:50:11.058Z,15.53
2018-06-08T17:52:40.825Z,14.43
2018-06-08T17:55:10.761Z,17.90
2018-06-08T17:57:42.005Z,15.90
2018-06-08T18:00:12.565Z,17.13
2018-06-08T18:02:43.040Z,16.40
2018-06-08T18:05:12.946Z,18.53
2018-06-08T18:07:42.777Z,15.23
2018-06-08T18:10:12.506Z,17.53
2018-06-08T18:12:43.040Z,15.93
2018-06-08T18:15:12.897Z,19.27
2018-06-08T18:17:42.866Z,18.33
2018-06-08T18:20:12.804Z,17.57
2018-06-08T18:22:43.290Z,22.87
2018-06-08T18:25:13.089Z,21.67
2018-06-08T18:27:43.473Z,19.23
2018-06-08T18:30:13.950Z,16.93
2018-06-08T18:32:43.797Z,20.30
2018-06-08T18:35:14.022Z,17.47
2018-06-08T18:37:44.535Z,17.57
2018-06-08T18:40:14.576Z,19.17
2018-06-08T18:42:44.685Z,18.73
2018-06-08T18:45:14.585Z,20.80
2018-06-08T18:47:45.569Z,18.83
2018-06-08T18:50:16.678Z,19.30
2018-06-08T18:52:46.677Z,19.57
2018-06-08T18:55:16.583Z,18.57
2018-06-08T18:57:46.295Z,19.93
2018-06-08T19:00:16.375Z,20.50
2018-06-08T19:02:46.153Z,19.00
2018-06-08T19:05:15.876Z,19.17
2018-06-08T19:07:46.325Z,19.73
2018-06-08T19:10:16.149Z,19.83
2018-06-08T19:12:45.911Z,19.27
2018-06-08T19:15:15.905Z,20.37
2018-06-08T19:17:45.641Z,20.73
2018-06-08T19:20:16.207Z,19.63
2018-06-08T19:22:46.740Z,19.67
2018-06-08T19:25:16.539Z,21.00
2018-06-08T19:27:46.662Z,19.60
2018-06-08T19:30:16.541Z,20.63
2018-06-08T19:32:46.399Z,22.10
2018-06-08T19:35:16.341Z,20.43
2018-06-08T19:37:47.012Z,20.87
2018-06-08T19:40:16.783Z,19.57
2018-06-08T19:42:47.321Z,19.47
2018-06-08T19:45:17.912Z,18.87
2018-06-08T19:47:49.686Z,20.30
2018-06-08T19:50:21.268Z,21.00
2018-06-08T19:52:52.323Z,19.77
2018-06-08T19:55:22.765Z,19.80
2018-06-08T19:57:53.529Z,20.17
2018-06-08T20:00:23.604Z,20.33
2018-06-08T20:02:53.321Z,19.03
2018-06-08T20:05:24.664Z,20.03
2018-06-08T20:07:54.462Z,20.33
2018-06-08T20:10:24.696Z,20.67
2018-06-08T20:12:54.526Z,20.77
2018-06-08T20:15:24.327Z,20.43
2018-06-08T20:17:54.069Z,20.70
2018-06-08T20:20:23.898Z,21.63
2018-06-08T20:22:53.650Z,20.40
2018-06-08T20:25:24.061Z,21.07
2018-06-08T20:27:53.780Z,21.47
2018-06-08T20:30:23.596Z,20.30
2018-06-08T20:32:54.140Z,22.10
2018-06-08T20:35:24.152Z,21.03
2018-06-08T20:37:54.047Z,21.47
2018-06-08T20:40:23.817Z,21.57
2018-06-08T20:42:53.656Z,22.47
2018-06-08T20:45:23.583Z,23.10
2018-06-08T20:47:53.382Z,21.23
2018-06-08T20:50:23.937Z,21.87
2018-06-08T20:52:53.745Z,21.77
2018-06-08T20:55:24.339Z,20.83
2018-06-08T20:58:00.640Z,20.07
2018-06-08T21:00:31.208Z,22.30
2018-06-08T21:03:01.003Z,22.33
2018-06-08T21:05:30.701Z,20.57
2018-06-08T21:08:00.689Z,21.57
2018-06-08T21:10:30.630Z,20.37
2018-06-08T21:13:00.446Z,21.33
2018-06-08T21:15:30.473Z,21.03
2018-06-08T21:18:00.324Z,21.85
2018-06-08T21:20:30.123Z,20.83
2018-06-08T21:23:01.356Z,20.37
2018-06-08T21:25:31.181Z,21.35
2018-06-08T21:28:02.048Z,20.77
2018-06-08T21:30:31.799Z,20.67
2018-06-08T21:33:01.540Z,20.37
2018-06-08T21:35:31.813Z,20.33
2018-06-08T21:38:01.673Z,21.00
2018-06-08T21:40:31.412Z,20.00
2018-06-08T21:43:01.204Z,19.57
2018-06-08T21:45:31.605Z,20.27
2018-06-08T21:48:02.133Z,20.50
2018-06-08T21:50:32.468Z,20.40
2018-06-08T21:53:03.390Z,20.13
2018-06-08T21:55:33.772Z,20.70
2018-06-08T21:58:03.495Z,20.80
2018-06-08T22:00:33.663Z,20.47
2018-06-08T22:03:03.736Z,20.83
2018-06-08T22:05:33.753Z,22.03
2018-06-08T22:08:04.925Z,20.90
2018-06-08T22:10:34.973Z,20.93
2018-06-08T22:13:05.450Z,21.83
2018-06-08T22:15:35.565Z,22.27
2018-06-08T22:18:05.500Z,22.73
2018-06-08T22:20:35.276Z,22.53
2018-06-08T22:23:05.229Z,22.80
2018-06-08T22:25:35.077Z,22.00
2018-06-08T22:28:04.898Z,22.73
2018-06-08T22:30:34.691Z,24.37
2018-06-08T22:33:05.987Z,24.00
2018-06-08T22:35:36.398Z,22.30
2018-06-08T22:38:06.235Z,22.87
2018-06-08T22:40:36.179Z,23.10
2018-06-08T22:43:06.007Z,23.00
2018-06-08T22:45:35.762Z,22.00
2018-06-08T22:48:05.579Z,22.63
2018-06-08T22:50:36.984Z,23.40
2018-06-08T22:53:06.807Z,23.13
2018-06-08T22:55:36.610Z,23.80
2018-06-08T22:58:06.802Z,24.03
2018-06-08T23:00:36.976Z,23.57
2018-06-08T23:03:06.981Z,23.73
2018-06-08T23:05:37.301Z,24.37
2018-06-08T23:08:07.921Z,24.20
2018-06-08T23:10:37.722Z,23.50
2018-06-08T23:13:08.151Z,23.90
2018-06-08T23:15:39.107Z,25.50
2018-06-08T23:18:09.121Z,25.30
2018-06-08T23:20:38.901Z,25.23
2018-06-08T23:23:08.717Z,25.03
2018-06-08T23:25:39.391Z,24.77
2018-06-08T23:28:09.983Z,24.83
2018-06-08T23:30:39.883Z,26.50
2018-06-08T23:33:10.238Z,24.80
2018-06-08T23:35:40.061Z,26.23
2018-06-08T23:38:09.880Z,28.87
2018-06-08T23:40:40.672Z,25.87
2018-06-08T23:43:10.711Z,24.90
2018-06-08T23:45:41.773Z,25.13
2018-06-08T23:48:11.727Z,25.53
2018-06-08T23:50:41.652Z,29.07
2018-06-08T23:53:11.615Z,26.63
2018-06-08T23:55:41.540Z,24.07
2018-06-08T23:58:11.334Z,27.20
